NEA1759 KIAD-KORF
Flight info
| Callsign | NEA1759 |
|---|---|
| Flight time | 0h 31m |
| Altitude | 21000 |
| Route | COLIN OUTLA1 |
| Aircraft | A320/M-WX/S |
Departure
| Time | 2026-04-21 18:38 |
|---|---|
| Airport | Washington Dulles International Airport (KIAD) |
Arrival
| Time | 2026-04-21 19:09 |
|---|---|
| Airport | Norfolk International Airport (KORF) |
| Time | Latitude | Longitude | Altitude | Speed | Heading |
|---|---|---|---|---|---|
| 2026-04-21 18:30 | 38.94931 | -77.44554 | 299 ft | 0 kts | 197° |
| 2026-04-21 18:33 | 38.94943 | -77.44549 | 301 ft | 2 kts | 197° |
| 2026-04-21 18:33 | 38.94959 | -77.44546 | 299 ft | 2 kts | 142° |
| 2026-04-21 18:33 | 38.94968 | -77.44558 | 300 ft | 0 kts | 90° |
| 2026-04-21 18:34 | 38.94968 | -77.44555 | 300 ft | 1 kts | 90° |
| 2026-04-21 18:34 | 38.94998 | -77.44504 | 298 ft | 11 kts | 51° |
| 2026-04-21 18:34 | 38.95016 | -77.44399 | 296 ft | 14 kts | 90° |
| 2026-04-21 18:34 | 38.95015 | -77.44262 | 300 ft | 17 kts | 90° |
| 2026-04-21 18:35 | 38.95014 | -77.44147 | 292 ft | 21 kts | 91° |
| 2026-04-21 18:35 | 38.95013 | -77.43880 | 287 ft | 20 kts | 75° |
| 2026-04-21 18:35 | 38.95122 | -77.43848 | 285 ft | 18 kts | 1° |
| 2026-04-21 18:35 | 38.95252 | -77.43846 | 288 ft | 19 kts | 0° |
| 2026-04-21 18:36 | 38.95378 | -77.43830 | 293 ft | 17 kts | 40° |
| 2026-04-21 18:36 | 38.95400 | -77.43684 | 288 ft | 11 kts | 90° |
| 2026-04-21 18:36 | 38.95400 | -77.43663 | 288 ft | 4 kts | 90° |
| 2026-04-21 18:36 | 38.95393 | -77.43606 | 286 ft | 6 kts | 133° |
| 2026-04-21 18:37 | 38.95340 | -77.43600 | 286 ft | 9 kts | 178° |
| 2026-04-21 18:37 | 38.95240 | -77.43601 | 287 ft | 34 kts | 180° |
| 2026-04-21 18:37 | 38.94764 | -77.43607 | 291 ft | 99 kts | 180° |
| 2026-04-21 18:37 | 38.93903 | -77.43618 | 314 ft | 145 kts | 180° |
| 2026-04-21 18:38 | 38.92920 | -77.43630 | 959 ft | 139 kts | 189° |
| 2026-04-21 18:38 | 38.92084 | -77.44233 | 1591 ft | 146 kts | 231° |
| 2026-04-21 18:38 | 38.91786 | -77.45553 | 1996 ft | 173 kts | 276° |
| 2026-04-21 18:38 | 38.92427 | -77.46988 | 2277 ft | 203 kts | 313° |
| 2026-04-21 18:39 | 38.93765 | -77.47828 | 2513 ft | 234 kts | 354° |
| 2026-04-21 18:39 | 38.95427 | -77.47374 | 3024 ft | 259 kts | 24° |
| 2026-04-21 18:39 | 38.97051 | -77.46249 | 3833 ft | 270 kts | 32° |
| 2026-04-21 18:39 | 38.98633 | -77.44920 | 4849 ft | 272 kts | 32° |
| 2026-04-21 18:40 | 39.00196 | -77.43545 | 5935 ft | 272 kts | 31° |
| 2026-04-21 18:40 | 39.01766 | -77.42182 | 6941 ft | 273 kts | 29° |
| 2026-04-21 18:40 | 39.02816 | -77.41288 | 7552 ft | 275 kts | 28° |
| 2026-04-21 18:40 | 39.04977 | -77.39490 | 8764 ft | 277 kts | 27° |
| 2026-04-21 18:41 | 39.06611 | -77.38153 | 9656 ft | 280 kts | 26° |
| 2026-04-21 18:41 | 39.08271 | -77.36805 | 10491 ft | 283 kts | 26° |
| 2026-04-21 18:41 | 39.10002 | -77.35416 | 10827 ft | 305 kts | 25° |
| 2026-04-21 18:41 | 39.11863 | -77.33893 | 11057 ft | 330 kts | 31° |
| 2026-04-21 18:42 | 39.13513 | -77.31706 | 11533 ft | 352 kts | 50° |
| 2026-04-21 18:42 | 39.14600 | -77.28809 | 12193 ft | 368 kts | 69° |
| 2026-04-21 18:42 | 39.14922 | -77.25494 | 12860 ft | 382 kts | 89° |
| 2026-04-21 18:42 | 39.14482 | -77.22071 | 13565 ft | 391 kts | 98° |
| 2026-04-21 18:43 | 39.13686 | -77.18700 | 14280 ft | 398 kts | 109° |
| 2026-04-21 18:43 | 39.12377 | -77.15528 | 14896 ft | 405 kts | 122° |
| 2026-04-21 18:43 | 39.10623 | -77.12659 | 15486 ft | 410 kts | 129° |
| 2026-04-21 18:43 | 39.08757 | -77.09855 | 16072 ft | 414 kts | 129° |
| 2026-04-21 18:44 | 39.06884 | -77.07026 | 16653 ft | 417 kts | 129° |
| 2026-04-21 18:44 | 39.04999 | -77.04167 | 17250 ft | 420 kts | 129° |
| 2026-04-21 18:44 | 39.03101 | -77.01287 | 17830 ft | 424 kts | 129° |
| 2026-04-21 18:44 | 39.01207 | -76.98420 | 18407 ft | 428 kts | 129° |
| 2026-04-21 18:45 | 38.99271 | -76.95493 | 18946 ft | 431 kts | 129° |
| 2026-04-21 18:45 | 38.97263 | -76.92601 | 19448 ft | 436 kts | 135° |
| 2026-04-21 18:45 | 38.94921 | -76.90108 | 19963 ft | 440 kts | 146° |
| 2026-04-21 18:45 | 38.92225 | -76.88136 | 20476 ft | 442 kts | 157° |
| 2026-04-21 18:46 | 38.89368 | -76.86824 | 20966 ft | 442 kts | 168° |
| 2026-04-21 18:46 | 38.86331 | -76.85868 | 21477 ft | 445 kts | 169° |
| 2026-04-21 18:46 | 38.83309 | -76.84911 | 21942 ft | 449 kts | 169° |
| 2026-04-21 18:46 | 38.80309 | -76.83949 | 22398 ft | 452 kts | 168° |
| 2026-04-21 18:47 | 38.77246 | -76.82961 | 22856 ft | 455 kts | 168° |
| 2026-04-21 18:47 | 38.74164 | -76.81966 | 23322 ft | 459 kts | 168° |
| 2026-04-21 18:47 | 38.71060 | -76.80966 | 23770 ft | 462 kts | 168° |
| 2026-04-21 18:47 | 38.67928 | -76.79966 | 24195 ft | 465 kts | 168° |
| 2026-04-21 18:48 | 38.64778 | -76.78965 | 24595 ft | 468 kts | 169° |
| 2026-04-21 18:48 | 38.61615 | -76.77961 | 24985 ft | 470 kts | 168° |
| 2026-04-21 18:48 | 38.58432 | -76.76950 | 25350 ft | 473 kts | 168° |
| 2026-04-21 18:48 | 38.55233 | -76.75936 | 25724 ft | 475 kts | 168° |
| 2026-04-21 18:49 | 38.52019 | -76.74918 | 26102 ft | 477 kts | 168° |
| 2026-04-21 18:49 | 38.48788 | -76.73893 | 26469 ft | 480 kts | 168° |
| 2026-04-21 18:49 | 38.46595 | -76.73195 | 26717 ft | 481 kts | 168° |
| 2026-04-21 18:49 | 38.42277 | -76.71822 | 27210 ft | 484 kts | 169° |
| 2026-04-21 18:50 | 38.38968 | -76.71052 | 27362 ft | 483 kts | 175° |
| 2026-04-21 18:50 | 38.35634 | -76.70510 | 27376 ft | 483 kts | 176° |
| 2026-04-21 18:50 | 38.32298 | -76.69977 | 27391 ft | 483 kts | 176° |
| 2026-04-21 18:50 | 38.28964 | -76.69449 | 27389 ft | 483 kts | 176° |
| 2026-04-21 18:51 | 38.25628 | -76.68921 | 27391 ft | 483 kts | 176° |
| 2026-04-21 18:51 | 38.22292 | -76.68391 | 27391 ft | 483 kts | 176° |
| 2026-04-21 18:51 | 38.18956 | -76.67863 | 27392 ft | 483 kts | 176° |
| 2026-04-21 18:51 | 38.15621 | -76.67332 | 27394 ft | 483 kts | 176° |
| 2026-04-21 18:52 | 38.12296 | -76.66800 | 26918 ft | 482 kts | 176° |
| 2026-04-21 18:52 | 38.08968 | -76.66529 | 26254 ft | 475 kts | 185° |
| 2026-04-21 18:52 | 38.05693 | -76.66728 | 25663 ft | 469 kts | 187° |
| 2026-04-21 18:52 | 38.02444 | -76.66967 | 25058 ft | 466 kts | 187° |
| 2026-04-21 18:53 | 37.99222 | -76.67204 | 24473 ft | 462 kts | 188° |
| 2026-04-21 18:53 | 37.96021 | -76.67435 | 23882 ft | 459 kts | 188° |
| 2026-04-21 18:53 | 37.92846 | -76.67659 | 23262 ft | 455 kts | 187° |
| 2026-04-21 18:53 | 37.89688 | -76.67555 | 22716 ft | 454 kts | 175° |
| 2026-04-21 18:54 | 37.86618 | -76.66662 | 22168 ft | 453 kts | 162° |
| 2026-04-21 18:54 | 37.83764 | -76.65000 | 21632 ft | 451 kts | 149° |
| 2026-04-21 18:54 | 37.81252 | -76.62662 | 21085 ft | 447 kts | 136° |
| 2026-04-21 18:54 | 37.79106 | -76.59845 | 20538 ft | 443 kts | 131° |
| 2026-04-21 18:55 | 37.77727 | -76.57950 | 20179 ft | 442 kts | 131° |
| 2026-04-21 18:55 | 37.74947 | -76.54145 | 19408 ft | 439 kts | 131° |
| 2026-04-21 18:55 | 37.72875 | -76.51320 | 18863 ft | 437 kts | 131° |
| 2026-04-21 18:55 | 37.70813 | -76.48519 | 18278 ft | 434 kts | 131° |
| 2026-04-21 18:56 | 37.68766 | -76.45743 | 17729 ft | 429 kts | 131° |
| 2026-04-21 18:56 | 37.66740 | -76.42995 | 17169 ft | 425 kts | 131° |
| 2026-04-21 18:56 | 37.64736 | -76.40272 | 16611 ft | 421 kts | 130° |
| 2026-04-21 18:56 | 37.62753 | -76.37574 | 16048 ft | 418 kts | 130° |
| 2026-04-21 18:57 | 37.60813 | -76.34937 | 15488 ft | 414 kts | 130° |
| 2026-04-21 18:57 | 37.58865 | -76.32291 | 14929 ft | 411 kts | 130° |
| 2026-04-21 18:57 | 37.56918 | -76.29657 | 14217 ft | 411 kts | 130° |
| 2026-04-21 18:57 | 37.54944 | -76.27000 | 13350 ft | 415 kts | 130° |
| 2026-04-21 18:58 | 37.52988 | -76.24378 | 12832 ft | 408 kts | 131° |
| 2026-04-21 18:58 | 37.51050 | -76.21790 | 12260 ft | 403 kts | 131° |
| 2026-04-21 18:58 | 37.49128 | -76.19227 | 11653 ft | 400 kts | 131° |
| 2026-04-21 18:58 | 37.47229 | -76.16693 | 11039 ft | 397 kts | 131° |
| 2026-04-21 18:59 | 37.45350 | -76.14183 | 10588 ft | 391 kts | 131° |
| 2026-04-21 18:59 | 37.43499 | -76.11779 | 10450 ft | 375 kts | 136° |
| 2026-04-21 18:59 | 37.41407 | -76.10020 | 10324 ft | 350 kts | 155° |
| 2026-04-21 18:59 | 37.39173 | -76.09116 | 10128 ft | 328 kts | 172° |
| 2026-04-21 19:00 | 37.36943 | -76.08801 | 9622 ft | 319 kts | 177° |
| 2026-04-21 19:00 | 37.34756 | -76.08547 | 9069 ft | 313 kts | 177° |
| 2026-04-21 19:00 | 37.32606 | -76.08305 | 8520 ft | 308 kts | 177° |
| 2026-04-21 19:00 | 37.30484 | -76.08066 | 7984 ft | 304 kts | 177° |
| 2026-04-21 19:01 | 37.28394 | -76.07828 | 7464 ft | 299 kts | 177° |
| 2026-04-21 19:01 | 37.26338 | -76.07590 | 6948 ft | 295 kts | 177° |
| 2026-04-21 19:01 | 37.24309 | -76.07355 | 6411 ft | 290 kts | 177° |
| 2026-04-21 19:01 | 37.22311 | -76.07126 | 5872 ft | 286 kts | 177° |
| 2026-04-21 19:02 | 37.20343 | -76.06902 | 5345 ft | 282 kts | 176° |
| 2026-04-21 19:02 | 37.18404 | -76.06680 | 4814 ft | 277 kts | 176° |
| 2026-04-21 19:02 | 37.16504 | -76.06461 | 4374 ft | 269 kts | 176° |
| 2026-04-21 19:02 | 37.14706 | -76.06253 | 4242 ft | 250 kts | 176° |
| 2026-04-21 19:03 | 37.13034 | -76.06059 | 4110 ft | 232 kts | 176° |
| 2026-04-21 19:03 | 37.11461 | -76.05878 | 3979 ft | 223 kts | 177° |
| 2026-04-21 19:03 | 37.09940 | -76.05705 | 3848 ft | 215 kts | 177° |
| 2026-04-21 19:03 | 37.08477 | -76.05537 | 3713 ft | 208 kts | 176° |
| 2026-04-21 19:04 | 37.07059 | -76.05373 | 3557 ft | 202 kts | 176° |
| 2026-04-21 19:04 | 37.05668 | -76.05257 | 3333 ft | 199 kts | 186° |
| 2026-04-21 19:04 | 37.04357 | -76.05689 | 3102 ft | 194 kts | 212° |
| 2026-04-21 19:04 | 37.03259 | -76.06639 | 2869 ft | 192 kts | 219° |
| 2026-04-21 19:05 | 37.02203 | -76.07652 | 2616 ft | 191 kts | 219° |
| 2026-04-21 19:05 | 37.01160 | -76.08663 | 2328 ft | 188 kts | 218° |
| 2026-04-21 19:05 | 37.00153 | -76.09638 | 2139 ft | 173 kts | 218° |
| 2026-04-21 19:05 | 36.99252 | -76.10511 | 2053 ft | 156 kts | 218° |
| 2026-04-21 19:06 | 36.98421 | -76.11317 | 1970 ft | 149 kts | 218° |
| 2026-04-21 19:06 | 36.97609 | -76.12103 | 1818 ft | 146 kts | 217° |
| 2026-04-21 19:06 | 36.96827 | -76.12861 | 1676 ft | 141 kts | 217° |
| 2026-04-21 19:06 | 36.96063 | -76.13600 | 1466 ft | 138 kts | 217° |
| 2026-04-21 19:07 | 36.95306 | -76.14333 | 1270 ft | 137 kts | 216° |
| 2026-04-21 19:07 | 36.94804 | -76.14819 | 1144 ft | 138 kts | 216° |
| 2026-04-21 19:07 | 36.94041 | -76.15556 | 956 ft | 139 kts | 216° |
| 2026-04-21 19:07 | 36.93265 | -76.16307 | 758 ft | 142 kts | 217° |
| 2026-04-21 19:08 | 36.92477 | -76.17069 | 571 ft | 145 kts | 217° |
| 2026-04-21 19:08 | 36.91681 | -76.17837 | 354 ft | 145 kts | 218° |
| 2026-04-21 19:08 | 36.90884 | -76.18612 | 164 ft | 146 kts | 218° |
| 2026-04-21 19:08 | 36.90094 | -76.19374 | 38 ft | 132 kts | 218° |
| 2026-04-21 19:09 | 36.89520 | -76.19929 | 39 ft | 57 kts | 218° |
| 2026-04-21 19:09 | 36.89415 | -76.20075 | 41 ft | 8 kts | 291° |
| 2026-04-21 19:09 | 36.89435 | -76.20134 | 40 ft | 9 kts | 283° |
| 2026-04-21 19:09 | 36.89495 | -76.20177 | 38 ft | 11 kts | 19° |
| 2026-04-21 19:10 | 36.89569 | -76.20100 | 36 ft | 17 kts | 39° |
| 2026-04-21 19:10 | 36.89674 | -76.19996 | 38 ft | 21 kts | 37° |
| 2026-04-21 19:10 | 36.89757 | -76.20052 | 37 ft | 18 kts | 294° |
| 2026-04-21 19:10 | 36.89835 | -76.20123 | 34 ft | 7 kts | 353° |
| 2026-04-21 19:11 | 36.89860 | -76.20125 | 34 ft | 0 kts | 357° |